Time;durP1;ratioP1;P1;durP2;ratioP2;P2;SDS_P1;SDS_P2;PMS_P1;PMS_P2;Temp;Humidity;BMP_temperature;BMP_pressure;BME280_temperature;BME280_humidity;BME280_pressure;Samples;Min_cycle;Max_cycle;Signal;HPM_P1;HPM_P2
2023/10/16 00:01:26;;;;;;;5.82;0.75;;;5.70;96.90;;;;;;5000550;28;20026;-68
2023/10/16 00:03:51;;;;;;;6.25;1.10;;;5.80;96.80;;;;;;5000821;28;20378;-68
2023/10/16 00:06:18;;;;;;;4.75;1.17;;;5.70;96.80;;;;;;5010395;28;20038;-68
2023/10/16 00:08:47;;;;;;;7.38;0.75;;;5.70;96.90;;;;;;4990134;28;20042;-69
2023/10/16 00:11:16;;;;;;;2.20;0.80;;;5.70;96.80;;;;;;5001664;28;20037;-69
2023/10/16 00:13:50;;;;;;;3.97;1.25;;;5.80;97.00;;;;;;5002125;28;20418;-69
2023/10/16 00:16:17;;;;;;;5.30;0.98;;;5.70;96.80;;;;;;5007207;28;20033;-68
2023/10/16 00:18:45;;;;;;;7.55;1.27;;;5.70;97.00;;;;;;5010749;28;20049;-69
2023/10/16 00:21:13;;;;;;;3.25;0.65;;;5.70;97.10;;;;;;5008143;28;20040;-69
2023/10/16 00:23:39;;;;;;;2.22;0.73;;;5.60;96.90;;;;;;5002292;28;20532;-69
2023/10/16 00:26:06;;;;;;;3.83;0.95;;;5.70;97.00;;;;;;5009444;28;20050;-68
2023/10/16 00:28:32;;;;;;;3.13;1.10;;;5.70;96.90;;;;;;5006209;28;20045;-69
2023/10/16 00:30:57;;;;;;;2.28;0.88;;;5.70;97.00;;;;;;5002331;28;20462;-69
2023/10/16 00:33:23;;;;;;;4.00;0.90;;;5.70;96.90;;;;;;5003862;28;20073;-69
2023/10/16 00:35:48;;;;;;;7.82;0.93;;;5.60;96.90;;;;;;5000019;28;20034;-70
2023/10/16 00:38:14;;;;;;;3.92;0.90;;;5.60;97.00;;;;;;5000205;28;20089;-68
2023/10/16 00:41:15;;;;;;;4.90;0.95;;;5.50;96.90;;;;;;5000804;28;20022;-69
2023/10/16 00:43:40;;;;;;;7.70;1.00;;;5.50;97.00;;;;;;5005547;28;20088;-70
2023/10/16 00:46:08;;;;;;;2.45;0.80;;;5.50;97.00;;;;;;5006457;28;20026;-69
2023/10/16 00:48:39;;;;;;;4.43;1.05;;;5.50;97.00;;;;;;5010367;28;20030;-68
2023/10/16 00:51:16;;;;;;;1.67;0.65;;;5.40;97.10;;;;;;5001049;28;20376;-69
2023/10/16 00:53:42;;;;;;;6.78;0.90;;;5.30;97.30;;;;;;5006062;28;20037;-68
2023/10/16 00:56:09;;;;;;;5.97;1.08;;;5.30;97.40;;;;;;5007109;28;20379;-68
2023/10/16 00:58:35;;;;;;;4.30;1.10;;;5.30;97.40;;;;;;5002277;28;20024;-69
2023/10/16 01:01:05;;;;;;;3.40;1.02;;;5.20;97.40;;;;;;5008236;28;20395;-68
2023/10/16 01:03:33;;;;;;;3.80;0.82;;;5.10;97.50;;;;;;5006361;28;20125;-68
2023/10/16 01:05:59;;;;;;;1.95;0.75;;;5.10;97.70;;;;;;5007025;28;20694;-70
2023/10/16 01:08:28;;;;;;;2.67;0.77;;;5.10;97.80;;;;;;5007842;28;20081;-69
2023/10/16 01:10:57;;;;;;;4.68;0.85;;;5.00;97.90;;;;;;4984451;28;20061;-69
2023/10/16 01:13:26;;;;;;;3.90;1.05;;;5.00;98.00;;;;;;5011142;28;20076;-68
2023/10/16 01:15:52;;;;;;;1.50;0.80;;;5.10;98.00;;;;;;5001787;28;20057;-68
2023/10/16 01:18:18;;;;;;;2.63;0.80;;;5.10;98.00;;;;;;5003478;28;20072;-69
2023/10/16 01:20:48;;;;;;;5.78;1.00;;;5.10;98.00;;;;;;5000876;28;20045;-68
2023/10/16 01:23:19;;;;;;;3.97;0.80;;;5.10;98.00;;;;;;5007582;28;20495;-68
2023/10/16 01:25:46;;;;;;;5.00;1.00;;;5.10;98.00;;;;;;5004460;28;20220;-68
2023/10/16 01:28:12;;;;;;;5.43;0.90;;;5.10;98.00;;;;;;5007481;28;20675;-69
2023/10/16 01:30:41;;;;;;;2.42;1.10;;;5.10;98.10;;;;;;5001001;28;20061;-69
2023/10/16 01:33:07;;;;;;;3.72;1.17;;;5.00;98.10;;;;;;5003188;28;20479;-68
2023/10/16 01:35:36;;;;;;;3.38;1.05;;;5.00;98.10;;;;;;5003295;28;20037;-69
2023/10/16 01:38:14;;;;;;;6.45;1.35;;;5.10;98.20;;;;;;5000353;28;20509;-68
2023/10/16 01:41:04;;;;;;;5.53;1.05;;;5.10;98.20;;;;;;4998395;28;20041;-69
2023/10/16 01:43:31;;;;;;;3.85;0.98;;;5.10;98.20;;;;;;5003872;28;20029;-71
2023/10/16 01:46:08;;;;;;;5.15;0.93;;;5.10;98.20;;;;;;5000920;28;20029;-69
2023/10/16 01:48:40;;;;;;;7.65;1.45;;;5.20;98.30;;;;;;5006788;28;20104;-69
2023/10/16 01:51:06;;;;;;;7.45;1.30;;;5.20;98.10;;;;;;5000626;28;20022;-69
2023/10/16 01:53:36;;;;;;;6.55;1.23;;;5.10;98.10;;;;;;4994266;28;20392;-69
2023/10/16 01:56:12;;;;;;;5.25;1.50;;;5.10;98.10;;;;;;5004966;28;20040;-69
2023/10/16 01:58:41;;;;;;;5.45;1.30;;;5.10;98.10;;;;;;5000035;28;20157;-68
2023/10/16 02:01:08;;;;;;;3.40;0.90;;;5.00;98.20;;;;;;5000469;28;20032;-69
2023/10/16 02:03:34;;;;;;;4.10;1.23;;;5.00;98.20;;;;;;5006904;28;20383;-69
2023/10/16 02:05:59;;;;;;;4.38;1.10;;;4.90;98.30;;;;;;5010260;28;20084;-69
2023/10/16 02:08:25;;;;;;;6.65;1.35;;;4.90;98.40;;;;;;5002560;28;20096;-69
2023/10/16 02:10:52;;;;;;;5.78;1.73;;;4.80;98.30;;;;;;4973921;28;20035;-68
2023/10/16 02:13:17;;;;;;;3.30;1.13;;;4.80;98.40;;;;;;4995553;28;20153;-70
2023/10/16 02:15:43;;;;;;;3.60;1.20;;;4.70;98.50;;;;;;5002398;28;20569;-69
2023/10/16 02:18:18;;;;;;;5.43;1.27;;;4.70;98.60;;;;;;5000248;28;20033;-70
2023/10/16 02:20:45;;;;;;;4.47;1.35;;;4.70;98.60;;;;;;5008009;28;20390;-68
2023/10/16 02:23:11;;;;;;;5.70;1.10;;;4.60;98.70;;;;;;5011450;28;20041;-69
2023/10/16 02:25:37;;;;;;;4.57;1.20;;;4.60;98.70;;;;;;5007957;28;20054;-69
2023/10/16 02:28:04;;;;;;;7.65;1.20;;;4.60;98.80;;;;;;4999513;28;20050;-69
2023/10/16 02:30:35;;;;;;;2.20;1.02;;;4.60;98.80;;;;;;4999098;28;20073;-68
2023/10/16 02:35:42;;;;;;;4.47;1.88;;;4.50;98.80;;;;;;5006918;28;20049;-70
2023/10/16 02:38:12;;;;;;;4.70;1.35;;;4.50;98.90;;;;;;5004261;28;20022;-68
2023/10/16 02:40:39;;;;;;;6.32;1.52;;;4.40;98.90;;;;;;5001520;28;20018;-69
2023/10/16 02:43:13;;;;;;;3.47;1.63;;;4.40;98.90;;;;;;5007528;28;20083;-68
2023/10/16 02:45:42;;;;;;;7.72;1.58;;;4.40;99.00;;;;;;4996945;28;20054;-69
2023/10/16 02:48:09;;;;;;;6.70;1.73;;;4.50;99.10;;;;;;5001418;28;20439;-68
2023/10/16 02:50:35;;;;;;;4.50;1.70;;;4.60;99.10;;;;;;5004950;28;20058;-68
2023/10/16 02:53:01;;;;;;;7.47;1.70;;;4.60;99.10;;;;;;4997900;28;20381;-69
2023/10/16 02:55:27;;;;;;;4.30;1.92;;;4.60;99.10;;;;;;4999189;28;20125;-69
2023/10/16 02:57:52;;;;;;;8.25;1.65;;;4.70;99.10;;;;;;4997484;28;20057;-70
2023/10/16 03:00:34;;;;;;;7.43;1.60;;;4.70;99.10;;;;;;5000481;28;20065;-68
2023/10/16 03:03:00;;;;;;;8.40;2.10;;;4.70;99.10;;;;;;4999864;28;20128;-69
2023/10/16 03:05:28;;;;;;;4.07;2.35;;;4.80;99.10;;;;;;5007850;28;20109;-68
2023/10/16 03:07:54;;;;;;;3.88;2.00;;;4.80;99.10;;;;;;4998282;28;20030;-69
2023/10/16 03:10:23;;;;;;;6.00;2.05;;;4.90;99.20;;;;;;4978758;28;20042;-69
2023/10/16 03:12:52;;;;;;;8.02;2.40;;;5.00;99.10;;;;;;5007312;28;20087;-68
2023/10/16 03:15:26;;;;;;;5.95;1.63;;;5.00;99.10;;;;;;5004521;28;20092;-69
2023/10/16 03:17:54;;;;;;;5.13;1.88;;;5.00;99.10;;;;;;4999637;28;20072;-69
2023/10/16 03:20:21;;;;;;;5.00;1.58;;;5.10;99.00;;;;;;5002185;28;20026;-68
2023/10/16 03:22:49;;;;;;;6.05;1.42;;;5.10;99.10;;;;;;5007849;28;20385;-68
2023/10/16 03:25:28;;;;;;;4.72;1.52;;;5.10;99.10;;;;;;5008109;28;20053;-69
2023/10/16 03:27:56;;;;;;;3.83;1.58;;;5.20;99.00;;;;;;5009387;28;20545;-69
2023/10/16 03:30:26;;;;;;;5.70;1.70;;;5.10;99.00;;;;;;5010610;28;20034;-68
2023/10/16 03:32:53;;;;;;;5.90;1.65;;;5.20;99.00;;;;;;5007803;28;20053;-69
2023/10/16 03:35:21;;;;;;;4.68;1.67;;;5.20;98.90;;;;;;5006826;28;20117;-69
2023/10/16 03:37:49;;;;;;;8.55;1.88;;;5.30;98.90;;;;;;5009073;28;20161;-69
2023/10/16 03:40:16;;;;;;;7.03;1.75;;;5.30;98.90;;;;;;4996099;28;20026;-71
2023/10/16 03:42:43;;;;;;;5.13;1.42;;;5.30;99.00;;;;;;5000253;28;20048;-68
2023/10/16 03:45:09;;;;;;;6.55;1.90;;;5.40;98.90;;;;;;5007082;28;20034;-70
2023/10/16 03:47:34;;;;;;;5.20;1.48;;;5.40;98.90;;;;;;5007670;28;20381;-68
2023/10/16 03:50:00;;;;;;;4.93;1.42;;;5.40;98.90;;;;;;5002658;28;20081;-69
2023/10/16 03:52:28;;;;;;;4.65;1.67;;;5.50;99.10;;;;;;5002127;28;20101;-69
2023/10/16 03:54:53;;;;;;;5.22;1.60;;;5.50;98.90;;;;;;5004079;28;20491;-69
2023/10/16 03:57:20;;;;;;;5.90;1.40;;;5.50;99.00;;;;;;5003379;28;20030;-69
2023/10/16 03:59:47;;;;;;;8.73;1.70;;;5.60;99.00;;;;;;5006859;28;20033;-69
2023/10/16 04:02:19;;;;;;;6.22;1.67;;;5.60;99.10;;;;;;5001169;28;20033;-69
2023/10/16 04:04:46;;;;;;;5.05;1.25;;;5.60;99.00;;;;;;5007125;28;20084;-69
2023/10/16 04:07:14;;;;;;;4.45;1.33;;;5.60;99.00;;;;;;5007120;28;20486;-70
2023/10/16 04:09:49;;;;;;;4.88;1.60;;;5.60;99.10;;;;;;4984548;28;20038;-68
2023/10/16 04:12:17;;;;;;;2.70;1.30;;;5.70;99.20;;;;;;5009773;28;20037;-69
2023/10/16 04:14:50;;;;;;;4.95;1.25;;;5.80;99.20;;;;;;5007616;28;20042;-68
2023/10/16 04:17:18;;;;;;;4.43;1.27;;;5.80;99.20;;;;;;5008646;28;20068;-69
2023/10/16 04:19:52;;;;;;;7.18;1.55;;;5.90;99.20;;;;;;5008538;28;20116;-69
2023/10/16 04:22:19;;;;;;;6.88;1.52;;;5.90;99.10;;;;;;5000253;28;20066;-69
2023/10/16 04:24:45;;;;;;;4.57;1.30;;;5.90;99.10;;;;;;5010069;28;20367;-68
2023/10/16 04:29:46;;;;;;;8.60;1.40;;;5.90;99.10;;;;;;5010531;28;20034;-66
2023/10/16 04:35:03;;;;;;;6.38;1.33;;;5.90;99.10;;;;;;5007845;28;20283;-68
2023/10/16 04:37:40;;;;;;;3.92;1.45;;;5.80;99.10;;;;;;5004365;28;20046;-68
2023/10/16 04:50:37;;;;;;;5.28;1.63;;;5.90;99.40;;;;;;5005762;28;20256;-66
2023/10/16 04:53:12;;;;;;;4.00;1.67;;;5.90;99.40;;;;;;5021947;28;20038;-66
2023/10/16 05:04:24;;;;;;;7.53;1.90;;;5.90;99.40;;;;;;5003734;28;20061;-66
2023/10/16 05:17:21;;;;;;;5.70;1.95;;;5.90;99.40;;;;;;5006279;28;20083;-66
2023/10/16 05:19:53;;;;;;;6.85;2.10;;;6.00;99.50;;;;;;4999992;28;20358;-67
2023/10/16 06:14:39;;;;;;;8.52;3.05;;;6.40;99.80;;;;;;4943487;28;20138;-67
2023/10/16 06:17:15;;;;;;;6.38;3.08;;;6.40;99.80;;;;;;4946435;28;20162;-67
2023/10/16 06:19:44;;;;;;;7.03;3.65;;;6.50;99.80;;;;;;4981364;28;20034;-67
2023/10/16 06:22:10;;;;;;;6.95;3.15;;;6.50;99.80;;;;;;5009820;28;20045;-67
2023/10/16 06:24:36;;;;;;;5.57;3.42;;;6.50;99.80;;;;;;5006385;28;20037;-67
2023/10/16 06:27:11;;;;;;;11.43;4.00;;;6.50;99.80;;;;;;5009996;28;20151;-67
2023/10/16 06:29:41;;;;;;;11.20;4.15;;;6.50;99.80;;;;;;5001427;28;20033;-67
2023/10/16 06:32:07;;;;;;;8.93;3.55;;;6.60;99.80;;;;;;4994768;28;20482;-69
2023/10/16 06:34:36;;;;;;;7.38;3.83;;;6.60;99.90;;;;;;5002294;28;20534;-66
2023/10/16 06:37:06;;;;;;;7.45;4.03;;;6.60;99.80;;;;;;5019341;28;20084;-67
2023/10/16 06:39:41;;;;;;;9.18;3.97;;;6.60;99.90;;;;;;4997216;28;20462;-68
2023/10/16 06:42:11;;;;;;;7.88;4.20;;;6.60;99.80;;;;;;4999973;28;20107;-67
2023/10/16 06:44:36;;;;;;;11.63;4.50;;;6.70;99.90;;;;;;5002218;28;20126;-67
2023/10/16 06:47:02;;;;;;;11.18;4.72;;;6.70;99.80;;;;;;5002379;28;20568;-66
2023/10/16 06:49:35;;;;;;;8.50;4.32;;;6.70;99.90;;;;;;5002130;28;20027;-67
2023/10/16 06:52:05;;;;;;;10.23;4.05;;;6.70;99.90;;;;;;5007512;28;20072;-67
2023/10/16 06:54:39;;;;;;;12.13;4.82;;;6.80;99.90;;;;;;5003451;28;20029;-67
2023/10/16 06:57:13;;;;;;;8.75;5.18;;;6.80;99.80;;;;;;4998622;28;20033;-66
2023/10/16 06:59:40;;;;;;;9.88;4.30;;;6.80;99.90;;;;;;5003994;28;20558;-68
2023/10/16 07:02:15;;;;;;;9.65;5.05;;;6.80;99.90;;;;;;4996491;28;20058;-66
2023/10/16 07:04:41;;;;;;;8.60;4.22;;;6.80;99.90;;;;;;5000284;28;20037;-67
2023/10/16 07:07:14;;;;;;;7.72;4.65;;;6.80;99.80;;;;;;4996685;28;20489;-67
2023/10/16 07:09:49;;;;;;;10.82;5.10;;;6.90;99.80;;;;;;4973925;28;20422;-66
2023/10/16 07:12:19;;;;;;;8.95;4.85;;;6.90;99.90;;;;;;5003156;28;20029;-67
2023/10/16 07:15:01;;;;;;;9.65;4.72;;;7.00;99.80;;;;;;5004834;28;20053;-67
2023/10/16 07:17:28;;;;;;;11.50;4.50;;;7.00;99.80;;;;;;5000421;28;20029;-67
2023/10/16 07:20:00;;;;;;;8.63;4.85;;;7.00;99.80;;;;;;5009659;28;20467;-67
2023/10/16 07:22:32;;;;;;;9.15;5.20;;;7.10;99.80;;;;;;5003143;28;20057;-67
2023/10/16 07:25:08;;;;;;;10.88;4.57;;;7.10;99.70;;;;;;5001248;28;20058;-67
2023/10/16 07:27:35;;;;;;;9.07;4.57;;;7.30;99.80;;;;;;5006028;28;20029;-66
2023/10/16 07:30:01;;;;;;;10.65;4.75;;;7.30;99.80;;;;;;5005852;28;20363;-67
2023/10/16 07:32:26;;;;;;;8.60;4.97;;;7.30;99.60;;;;;;5007581;28;20030;-66
2023/10/16 07:34:52;;;;;;;9.63;4.65;;;7.30;99.60;;;;;;5004997;28;20034;-66
2023/10/16 07:37:17;;;;;;;7.28;4.25;;;7.30;99.60;;;;;;5002666;28;20030;-67
2023/10/16 07:39:42;;;;;;;9.00;4.43;;;7.40;99.60;;;;;;5007314;28;20026;-67
2023/10/16 07:42:10;;;;;;;7.63;4.57;;;7.40;99.50;;;;;;5006100;28;20411;-66
2023/10/16 07:44:35;;;;;;;9.23;4.30;;;7.40;99.50;;;;;;4999387;28;20037;-67
2023/10/16 07:47:01;;;;;;;9.23;4.65;;;7.50;99.60;;;;;;4999154;28;20026;-66
2023/10/16 07:49:27;;;;;;;8.07;4.22;;;7.50;99.50;;;;;;5005321;28;20026;-67
2023/10/16 07:51:52;;;;;;;10.20;4.60;;;7.50;99.50;;;;;;5006000;28;20053;-66
2023/10/16 07:54:20;;;;;;;13.45;5.40;;;7.50;99.40;;;;;;5005458;28;20116;-68
2023/10/16 07:56:52;;;;;;;8.32;4.22;;;7.50;99.50;;;;;;5006868;28;20030;-67
2023/10/16 07:59:21;;;;;;;8.07;4.45;;;7.50;99.40;;;;;;5005565;28;20065;-66
2023/10/16 08:01:52;;;;;;;9.00;4.47;;;7.60;99.40;;;;;;5008688;28;20029;-67
2023/10/16 08:06:55;;;;;;;7.80;4.32;;;7.50;99.30;;;;;;5010682;28;20585;-66
2023/10/16 08:11:57;;;;;;;7.85;4.80;;;7.70;99.30;;;;;;4998990;28;20042;-66
2023/10/16 08:14:32;;;;;;;7.57;4.43;;;7.80;99.30;;;;;;5008946;28;20026;-67
2023/10/16 08:17:03;;;;;;;8.95;4.72;;;7.80;99.20;;;;;;5007169;28;20457;-66
2023/10/16 08:19:33;;;;;;;8.68;4.63;;;7.70;99.10;;;;;;5003346;28;20387;-67
2023/10/16 08:22:02;;;;;;;10.80;4.60;;;7.80;99.10;;;;;;5008511;28;20030;-67
2023/10/16 08:24:28;;;;;;;7.20;4.10;;;7.80;99.00;;;;;;5003891;28;20414;-66
2023/10/16 08:27:07;;;;;;;9.27;4.40;;;7.80;99.00;;;;;;5008117;28;20053;-66
2023/10/16 08:29:34;;;;;;;8.48;4.28;;;7.90;99.00;;;;;;5000884;28;20149;-67
2023/10/16 08:34:43;;;;;;;7.50;3.97;;;8.00;98.90;;;;;;5010912;28;20100;-66
2023/10/16 08:37:11;;;;;;;7.68;4.45;;;8.00;98.80;;;;;;5012414;28;20029;-67
2023/10/16 08:39:37;;;;;;;8.43;4.45;;;8.10;98.90;;;;;;5008560;28;20482;-66
2023/10/16 08:42:18;;;;;;;8.23;4.45;;;8.30;98.80;;;;;;5000681;28;20169;-67
2023/10/16 08:44:45;;;;;;;7.40;4.10;;;8.20;98.70;;;;;;5010642;28;20030;-67
2023/10/16 08:47:16;;;;;;;6.35;3.67;;;8.30;98.80;;;;;;5023578;28;20061;-67
2023/10/16 08:49:52;;;;;;;11.20;4.13;;;8.40;98.60;;;;;;5011949;28;20053;-66
2023/10/16 08:52:20;;;;;;;6.75;3.10;;;8.30;98.40;;;;;;5006068;28;20293;-66
2023/10/16 08:57:12;;;;;;;7.18;3.50;;;8.40;98.30;;;;;;5011580;28;20037;-67
2023/10/16 08:59:38;;;;;;;5.40;3.15;;;8.40;98.20;;;;;;5004339;28;20125;-67
2023/10/16 09:02:11;;;;;;;7.20;3.78;;;8.40;98.20;;;;;;5007521;28;20026;-66
2023/10/16 09:04:37;;;;;;;6.15;3.55;;;8.60;98.50;;;;;;5011188;28;20029;-67
2023/10/16 09:07:03;;;;;;;6.53;3.03;;;8.70;98.50;;;;;;5011210;28;20546;-67
2023/10/16 09:09:31;;;;;;;5.35;3.13;;;8.70;98.00;;;;;;4973131;28;20056;-68
2023/10/16 09:12:10;;;;;;;6.82;3.05;;;8.70;97.90;;;;;;5007041;28;20025;-67
2023/10/16 09:14:37;;;;;;;7.20;3.20;;;8.70;97.70;;;;;;4995638;28;20042;-67
2023/10/16 09:17:06;;;;;;;5.22;2.97;;;8.70;97.60;;;;;;5001944;28;20324;-67
2023/10/16 09:19:34;;;;;;;7.43;2.78;;;8.70;97.60;;;;;;5010150;28;20060;-67
2023/10/16 09:22:08;;;;;;;7.15;2.80;;;8.70;97.60;;;;;;5002827;28;20102;-69
2023/10/16 09:24:34;;;;;;;8.25;2.78;;;8.70;97.50;;;;;;5007521;28;20034;-66
2023/10/16 09:27:00;;;;;;;6.63;2.50;;;8.80;97.50;;;;;;5000763;28;20038;-67
2023/10/16 09:29:27;;;;;;;7.53;2.30;;;9.00;97.70;;;;;;5005910;28;20489;-66
2023/10/16 09:31:53;;;;;;;5.70;2.70;;;9.10;97.50;;;;;;5000955;28;20038;-67
2023/10/16 09:34:21;;;;;;;5.97;2.70;;;9.10;97.20;;;;;;5006973;28;20049;-67
2023/10/16 09:37:15;;;;;;;3.65;2.33;;;9.10;97.00;;;;;;5006710;28;20054;-67
2023/10/16 09:39:40;;;;;;;4.63;1.77;;;9.30;97.00;;;;;;5001856;28;20030;-67
2023/10/16 09:42:11;;;;;;;2.72;1.63;;;9.30;96.10;;;;;;5003707;28;20030;-67
2023/10/16 09:44:41;;;;;;;5.65;1.88;;;9.20;95.40;;;;;;5004117;28;20038;-67
2023/10/16 09:47:25;;;;;;;6.30;2.00;;;9.30;95.80;;;;;;4998645;28;20096;-66
2023/10/16 09:49:53;;;;;;;2.97;1.88;;;9.40;96.10;;;;;;5006892;28;20522;-67
2023/10/16 09:52:20;;;;;;;2.15;1.42;;;9.50;95.70;;;;;;5007779;28;20037;-67
2023/10/16 09:54:48;;;;;;;3.92;1.27;;;9.50;95.40;;;;;;4993188;28;20022;-66
2023/10/16 09:57:22;;;;;;;3.28;1.10;;;9.60;95.20;;;;;;5001008;28;20255;-68
2023/10/16 09:59:54;;;;;;;3.42;0.73;;;9.50;94.30;;;;;;5000687;28;20026;-66
2023/10/16 10:02:25;;;;;;;1.35;0.95;;;9.40;93.50;;;;;;4999643;28;20330;-67
2023/10/16 10:05:02;;;;;;;0.95;0.80;;;9.40;92.80;;;;;;4997387;28;20029;-67
2023/10/16 10:07:38;;;;;;;2.45;0.75;;;9.60;93.30;;;;;;4999146;28;20558;-66
2023/10/16 10:11:04;;;;;;;2.25;1.17;;;9.70;92.10;;;;;;4975721;28;20054;-69
2023/10/16 10:12:56;;;;;;;4.20;1.05;;;9.80;92.90;;;;;;5002785;28;20041;-65
2023/10/16 10:15:29;;;;;;;2.25;1.17;;;10.00;93.40;;;;;;5008366;28;20030;-66
2023/10/16 10:17:56;;;;;;;2.92;1.00;;;9.90;92.90;;;;;;5000986;28;20034;-68
2023/10/16 10:20:39;;;;;;;1.63;0.80;;;10.10;93.30;;;;;;5005427;28;20111;-65
2023/10/16 10:23:06;;;;;;;2.70;1.00;;;10.20;92.30;;;;;;5004305;28;20025;-65
2023/10/16 10:25:37;;;;;;;1.02;0.77;;;10.50;91.30;;;;;;4998413;28;20107;-66
2023/10/16 10:28:11;;;;;;;3.67;0.60;;;10.60;90.10;;;;;;5001120;28;20375;-65
2023/10/16 10:30:45;;;;;;;1.77;0.70;;;10.80;89.50;;;;;;4996814;28;20084;-66
2023/10/16 10:33:12;;;;;;;1.80;0.70;;;11.00;89.60;;;;;;5000347;28;20049;-65
2023/10/16 10:35:38;;;;;;;2.08;0.50;;;11.10;89.00;;;;;;5006844;28;20481;-65
2023/10/16 10:38:17;;;;;;;1.15;0.60;;;10.80;88.40;;;;;;5006984;28;20037;-65
2023/10/16 10:41:06;;;;;;;1.80;0.50;;;11.00;87.90;;;;;;5001635;28;20031;-65
2023/10/16 10:44:09;;;;;;;2.53;0.50;;;10.70;87.20;;;;;;5009538;28;20038;-65
2023/10/16 10:46:41;;;;;;;1.05;0.40;;;10.40;86.00;;;;;;4965453;28;20030;-65
2023/10/16 10:49:12;;;;;;;1.52;0.40;;;10.40;84.80;;;;;;5002803;28;20057;-65
2023/10/16 10:51:44;;;;;;;1.10;0.52;;;10.60;85.30;;;;;;5001398;28;20466;-67
2023/10/16 10:54:12;;;;;;;1.45;0.68;;;10.70;87.40;;;;;;5004051;28;20076;-66
2023/10/16 10:56:39;;;;;;;3.53;1.13;;;10.90;87.70;;;;;;5008113;28;20601;-65
2023/10/16 10:59:11;;;;;;;4.68;0.75;;;11.50;85.70;;;;;;5009522;28;20450;-65
2023/10/16 11:01:50;;;;;;;2.63;0.57;;;11.60;85.90;;;;;;4999250;28;20097;-66
2023/10/16 11:04:15;;;;;;;2.78;0.38;;;11.60;82.60;;;;;;5004796;28;20080;-66
2023/10/16 11:06:52;;;;;;;1.30;0.50;;;11.40;83.60;;;;;;5006027;28;20025;-66
2023/10/16 11:09:21;;;;;;;2.45;0.77;;;11.20;84.70;;;;;;5001746;28;20076;-65
2023/10/16 11:11:47;;;;;;;2.60;0.50;;;11.50;83.80;;;;;;4975271;28;20035;-65
2023/10/16 11:14:14;;;;;;;2.38;0.40;;;11.70;82.40;;;;;;4998692;28;20038;-65
2023/10/16 11:16:48;;;;;;;2.22;0.55;;;11.70;81.60;;;;;;4999189;28;20057;-66
2023/10/16 11:19:23;;;;;;;2.08;0.50;;;12.10;81.00;;;;;;5002955;28;20033;-66
2023/10/16 11:21:49;;;;;;;2.50;0.50;;;12.20;83.10;;;;;;5001659;28;20487;-66
2023/10/16 11:24:14;;;;;;;1.38;0.55;;;11.90;79.70;;;;;;5004989;28;20125;-66
2023/10/16 11:26:42;;;;;;;1.00;0.20;;;11.70;80.50;;;;;;5003472;28;20129;-66
2023/10/16 11:29:12;;;;;;;1.02;0.20;;;11.50;81.20;;;;;;5003438;28;20088;-65
2023/10/16 11:31:41;;;;;;;1.23;0.40;;;11.30;81.80;;;;;;5004712;28;20023;-65
2023/10/16 11:34:12;;;;;;;0.63;0.35;;;11.10;81.90;;;;;;5008549;28;20045;-65
2023/10/16 11:36:38;;;;;;;2.03;0.63;;;11.10;82.60;;;;;;5009765;28;20040;-65
2023/10/16 11:39:06;;;;;;;0.43;0.30;;;11.00;83.10;;;;;;5006760;28;20030;-65
2023/10/16 11:41:38;;;;;;;0.77;0.20;;;11.00;83.00;;;;;;5006537;28;20382;-65
2023/10/16 11:44:14;;;;;;;1.48;0.50;;;11.00;81.50;;;;;;5008075;28;20121;-65
2023/10/16 11:46:45;;;;;;;2.47;0.45;;;11.10;82.30;;;;;;5002342;28;20026;-65
2023/10/16 11:49:22;;;;;;;1.80;0.57;;;11.00;82.40;;;;;;5008221;28;20069;-66
2023/10/16 11:51:50;;;;;;;0.75;0.43;;;10.90;84.10;;;;;;5002932;28;20034;-67
2023/10/16 11:54:20;;;;;;;4.65;0.50;;;10.90;84.20;;;;;;5010682;28;20045;-65
2023/10/16 11:56:53;;;;;;;1.50;0.40;;;10.80;83.00;;;;;;4998049;28;20497;-65
2023/10/16 11:59:21;;;;;;;1.50;0.65;;;10.80;81.70;;;;;;5004585;28;20045;-66
2023/10/16 12:01:50;;;;;;;2.17;0.30;;;11.00;82.10;;;;;;5008498;28;20028;-65
2023/10/16 12:04:17;;;;;;;1.95;0.60;;;11.00;80.90;;;;;;5005625;28;20041;-65
2023/10/16 12:06:47;;;;;;;2.40;0.60;;;11.30;80.70;;;;;;5008212;28;20030;-65
2023/10/16 12:09:13;;;;;;;2.30;0.50;;;11.40;81.90;;;;;;5007256;28;20116;-65
2023/10/16 12:11:44;;;;;;;2.92;0.47;;;11.40;82.10;;;;;;4982638;28;20125;-68
2023/10/16 12:14:13;;;;;;;;;;;11.40;82.20;;;;;;5010913;28;20030;-66
2023/10/16 12:16:40;;;;;;;1.73;0.45;;;11.30;82.40;;;;;;4998696;28;20214;-66
2023/10/16 12:19:05;;;;;;;1.50;0.60;;;11.20;82.20;;;;;;5001622;28;20041;-65
2023/10/16 12:21:31;;;;;;;2.13;0.40;;;11.10;81.60;;;;;;5008581;28;20380;-65
2023/10/16 12:23:57;;;;;;;1.60;0.28;;;11.20;81.70;;;;;;5008941;28;20398;-65
2023/10/16 12:26:22;;;;;;;3.20;0.50;;;11.30;81.70;;;;;;5003004;28;20193;-65
2023/10/16 12:28:48;;;;;;;1.15;0.47;;;11.50;81.40;;;;;;4997017;28;20038;-65
2023/10/16 12:31:13;;;;;;;1.75;0.30;;;11.50;80.70;;;;;;4996968;28;20034;-65
2023/10/16 12:33:39;;;;;;;0.63;0.30;;;11.60;81.40;;;;;;5005265;28;20030;-65
2023/10/16 12:36:08;;;;;;;1.67;0.30;;;11.60;82.00;;;;;;5011142;28;20470;-66
2023/10/16 12:38:34;;;;;;;1.67;0.47;;;11.60;81.30;;;;;;5007426;28;20037;-67
2023/10/16 12:41:04;;;;;;;1.27;0.40;;;11.60;81.90;;;;;;5011184;28;20060;-65
2023/10/16 12:43:30;;;;;;;;;;;11.50;81.60;;;;;;5009092;28;20044;-65
2023/10/16 12:45:59;;;;;;;2.97;0.75;;;11.50;80.50;;;;;;5000796;28;19914;-67
2023/10/16 12:48:29;;;;;;;4.43;0.43;;;11.50;81.40;;;;;;5006798;28;20543;-65
2023/10/16 12:50:59;;;;;;;3.13;0.80;;;11.40;80.60;;;;;;5012589;28;20014;-65
2023/10/16 12:53:26;;;;;;;1.43;0.50;;;11.60;81.40;;;;;;5006216;28;20034;-65
2023/10/16 12:55:55;;;;;;;1.38;0.35;;;11.60;81.10;;;;;;5006309;28;20023;-66
2023/10/16 12:58:22;;;;;;;0.80;0.28;;;11.50;79.80;;;;;;5011449;28;20025;-66
2023/10/16 13:00:50;;;;;;;3.25;0.57;;;11.60;80.00;;;;;;5009436;28;20037;-65
2023/10/16 13:03:16;;;;;;;1.02;0.30;;;11.60;79.70;;;;;;5004784;28;20045;-65
2023/10/16 13:05:42;;;;;;;1.00;0.50;;;11.50;80.50;;;;;;5004583;28;20105;-65
2023/10/16 13:08:08;;;;;;;1.42;0.50;;;11.60;79.20;;;;;;5004547;28;20132;-66
2023/10/16 13:10:35;;;;;;;1.23;0.40;;;11.80;79.70;;;;;;4986594;28;20050;-65
2023/10/16 13:13:00;;;;;;;3.05;0.43;;;11.80;78.80;;;;;;5007681;28;20117;-67
2023/10/16 13:15:29;;;;;;;3.60;0.47;;;12.00;78.70;;;;;;5003579;28;20120;-65
2023/10/16 13:17:55;;;;;;;3.63;0.38;;;12.00;78.40;;;;;;5009201;28;20037;-65
2023/10/16 13:20:20;;;;;;;3.47;0.65;;;12.30;78.40;;;;;;5007583;28;20040;-65
2023/10/16 13:22:49;;;;;;;0.82;0.20;;;12.10;78.10;;;;;;4996643;28;20068;-64
2023/10/16 13:25:18;;;;;;;2.78;0.40;;;12.00;77.80;;;;;;5005937;28;20407;-65
2023/10/16 13:27:46;;;;;;;0.70;0.30;;;11.80;77.30;;;;;;5010049;28;20077;-65
2023/10/16 13:30:12;;;;;;;1.77;0.70;;;11.80;77.30;;;;;;5009918;28;20433;-64
2023/10/16 13:32:41;;;;;;;2.58;0.50;;;11.60;76.80;;;;;;5019176;28;20069;-65
2023/10/16 13:35:12;;;;;;;0.90;0.22;;;11.50;78.90;;;;;;5000587;28;20152;-65
2023/10/16 13:37:42;;;;;;;2.78;0.45;;;11.30;79.60;;;;;;4998251;28;20032;-65
2023/10/16 13:40:20;;;;;;;4.43;0.80;;;11.30;80.00;;;;;;5009714;28;20541;-64
2023/10/16 13:42:56;;;;;;;2.92;0.45;;;11.30;79.10;;;;;;5004243;28;20029;-65
2023/10/16 13:45:23;;;;;;;4.05;0.40;;;12.00;79.90;;;;;;5003938;28;20434;-65
2023/10/16 13:47:50;;;;;;;3.50;0.35;;;12.60;76.50;;;;;;5012387;28;20065;-67
2023/10/16 13:50:28;;;;;;;3.30;0.45;;;12.60;74.90;;;;;;5006256;28;20738;-65
2023/10/16 13:52:54;;;;;;;0.30;0.30;;;12.80;75.10;;;;;;5000578;28;20375;-66
2023/10/16 13:55:20;;;;;;;1.70;0.50;;;12.90;75.20;;;;;;5008863;28;20061;-66
2023/10/16 13:57:47;;;;;;;2.20;0.40;;;13.30;72.20;;;;;;4997369;28;20030;-65
2023/10/16 14:00:29;;;;;;;2.35;0.45;;;13.20;73.40;;;;;;5001839;28;20034;-66
2023/10/16 14:03:06;;;;;;;1.77;0.40;;;13.60;73.20;;;;;;4997608;28;20081;-65
2023/10/16 14:05:42;;;;;;;2.05;0.32;;;14.00;73.70;;;;;;5004551;28;20025;-66
2023/10/16 14:08:14;;;;;;;2.03;0.57;;;13.90;71.00;;;;;;5004014;28;20061;-66
2023/10/16 14:10:45;;;;;;;1.50;0.50;;;13.90;69.90;;;;;;4975459;28;20096;-66
2023/10/16 14:13:18;;;;;;;1.10;0.35;;;14.10;69.40;;;;;;5007012;28;20065;-65
2023/10/16 14:15:44;;;;;;;2.47;0.50;;;13.80;70.10;;;;;;5005617;28;20024;-65
2023/10/16 14:18:14;;;;;;;1.75;0.43;;;13.90;69.90;;;;;;5002812;28;20100;-66
2023/10/16 14:20:45;;;;;;;2.67;0.57;;;14.10;70.20;;;;;;5009408;28;20026;-66
2023/10/16 14:23:11;;;;;;;3.00;0.60;;;13.70;71.00;;;;;;5007063;28;20301;-65
2023/10/16 14:25:45;;;;;;;2.90;0.45;;;13.40;70.90;;;;;;5001285;28;20045;-66
2023/10/16 14:30:57;;;;;;;1.52;0.32;;;13.50;72.60;;;;;;4999124;28;20545;-66
2023/10/16 14:33:28;;;;;;;1.45;0.40;;;13.80;71.50;;;;;;4999021;28;20037;-65
2023/10/16 14:36:00;;;;;;;4.50;0.38;;;13.80;71.50;;;;;;5001742;28;20029;-65
2023/10/16 14:38:27;;;;;;;2.20;0.40;;;13.60;71.20;;;;;;5007008;28;20567;-65
2023/10/16 14:40:56;;;;;;;3.30;0.73;;;13.80;70.60;;;;;;5002409;28;20164;-65
2023/10/16 14:43:24;;;;;;;1.00;0.47;;;13.60;72.50;;;;;;5000396;28;20057;-66
2023/10/16 14:45:53;;;;;;;0.65;0.20;;;13.00;74.30;;;;;;5001501;28;20459;-67
2023/10/16 14:48:20;;;;;;;2.10;0.60;;;13.00;75.40;;;;;;5007309;28;20444;-65